sensor_id;sensor_type;location;lat;lon;timestamp;pressure;altitude;pressure_sealevel;temperature;humidity
55066;BME280;40964;42.114;24.220;2023-01-31T00:00:43;97391.31;;;1.01;83.93
55066;BME280;40964;42.114;24.220;2023-01-31T00:03:09;97388.75;;;0.93;84.92
55066;BME280;40964;42.114;24.220;2023-01-31T00:05:34;97389.69;;;1.00;84.83
55066;BME280;40964;42.114;24.220;2023-01-31T00:07:59;97387.09;;;1.08;84.90
55066;BME280;40964;42.114;24.220;2023-01-31T00:10:26;97385.13;;;1.10;84.46
55066;BME280;40964;42.114;24.220;2023-01-31T00:12:51;97378.34;;;1.09;83.14
55066;BME280;40964;42.114;24.220;2023-01-31T00:15:17;97373.44;;;1.14;82.37
55066;BME280;40964;42.114;24.220;2023-01-31T00:17:43;97375.03;;;1.24;81.23
55066;BME280;40964;42.114;24.220;2023-01-31T00:20:09;97369.69;;;1.25;80.08
55066;BME280;40964;42.114;24.220;2023-01-31T00:22:34;97374.69;;;1.35;79.33
55066;BME280;40964;42.114;24.220;2023-01-31T00:24:59;97377.41;;;1.41;78.21
55066;BME280;40964;42.114;24.220;2023-01-31T00:27:25;97368.78;;;1.49;78.17
55066;BME280;40964;42.114;24.220;2023-01-31T00:29:50;97361.31;;;1.54;77.29
55066;BME280;40964;42.114;24.220;2023-01-31T00:32:16;97365.38;;;1.49;77.18
55066;BME280;40964;42.114;24.220;2023-01-31T00:34:41;97378.47;;;1.55;76.96
55066;BME280;40964;42.114;24.220;2023-01-31T00:37:06;97384.16;;;1.51;77.71
55066;BME280;40964;42.114;24.220;2023-01-31T00:39:32;97372.34;;;1.48;77.88
55066;BME280;40964;42.114;24.220;2023-01-31T00:41:57;97380.13;;;1.48;78.25
55066;BME280;40964;42.114;24.220;2023-01-31T00:44:23;97376.97;;;1.61;77.82
55066;BME280;40964;42.114;24.220;2023-01-31T00:46:48;97384.94;;;1.59;77.55
55066;BME280;40964;42.114;24.220;2023-01-31T00:49:14;97382.34;;;1.59;77.76
55066;BME280;40964;42.114;24.220;2023-01-31T00:51:39;97382.91;;;1.69;77.26
55066;BME280;40964;42.114;24.220;2023-01-31T00:54:05;97391.00;;;1.75;76.71
55066;BME280;40964;42.114;24.220;2023-01-31T00:56:30;97386.63;;;1.75;76.75
55066;BME280;40964;42.114;24.220;2023-01-31T00:58:56;97396.19;;;1.75;76.18
55066;BME280;40964;42.114;24.220;2023-01-31T01:01:24;97400.03;;;1.79;76.62
55066;BME280;40964;42.114;24.220;2023-01-31T01:03:56;97392.56;;;1.84;75.47
55066;BME280;40964;42.114;24.220;2023-01-31T01:06:22;97401.66;;;1.80;76.50
55066;BME280;40964;42.114;24.220;2023-01-31T01:08:48;97402.59;;;1.87;76.86
55066;BME280;40964;42.114;24.220;2023-01-31T01:11:17;97401.91;;;1.93;76.96
55066;BME280;40964;42.114;24.220;2023-01-31T01:13:43;97391.56;;;1.93;76.51
55066;BME280;40964;42.114;24.220;2023-01-31T01:16:17;97386.38;;;1.93;76.23
55066;BME280;40964;42.114;24.220;2023-01-31T01:18:43;97391.31;;;2.03;74.89
55066;BME280;40964;42.114;24.220;2023-01-31T01:21:15;97381.34;;;2.14;73.24
55066;BME280;40964;42.114;24.220;2023-01-31T01:23:41;97381.84;;;2.33;74.05
55066;BME280;40964;42.114;24.220;2023-01-31T01:26:24;97370.97;;;2.37;74.68
55066;BME280;40964;42.114;24.220;2023-01-31T01:28:51;97378.06;;;2.43;75.16
55066;BME280;40964;42.114;24.220;2023-01-31T01:31:17;97373.31;;;2.47;75.05
55066;BME280;40964;42.114;24.220;2023-01-31T01:33:44;97356.06;;;2.54;74.38
55066;BME280;40964;42.114;24.220;2023-01-31T01:36:12;97361.53;;;2.59;75.43
55066;BME280;40964;42.114;24.220;2023-01-31T01:38:40;97360.66;;;2.67;75.20
55066;BME280;40964;42.114;24.220;2023-01-31T01:41:06;97338.69;;;2.54;75.14
55066;BME280;40964;42.114;24.220;2023-01-31T01:43:49;97346.31;;;2.56;75.16
55066;BME280;40964;42.114;24.220;2023-01-31T01:46:35;97338.22;;;2.51;76.09
55066;BME280;40964;42.114;24.220;2023-01-31T01:51:40;97319.44;;;2.49;76.29
55066;BME280;40964;42.114;24.220;2023-01-31T01:54:12;97312.56;;;2.56;75.42
55066;BME280;40964;42.114;24.220;2023-01-31T01:56:43;97306.03;;;2.60;75.75
55066;BME280;40964;42.114;24.220;2023-01-31T01:59:31;97295.31;;;2.63;75.58
55066;BME280;40964;42.114;24.220;2023-01-31T02:01:58;97299.13;;;2.67;75.48
55066;BME280;40964;42.114;24.220;2023-01-31T02:04:28;97295.75;;;2.67;76.06
55066;BME280;40964;42.114;24.220;2023-01-31T02:06:55;97300.03;;;2.60;75.42
55066;BME280;40964;42.114;24.220;2023-01-31T02:12:11;97275.78;;;2.67;74.90
55066;BME280;40964;42.114;24.220;2023-01-31T02:14:38;97278.47;;;2.74;73.96
55066;BME280;40964;42.114;24.220;2023-01-31T02:17:04;97280.78;;;2.69;74.49
55066;BME280;40964;42.114;24.220;2023-01-31T02:33:12;97282.69;;;2.75;74.79
55066;BME280;40964;42.114;24.220;2023-01-31T02:36:14;97279.91;;;2.76;76.33
55066;BME280;40964;42.114;24.220;2023-01-31T02:42:23;97277.91;;;2.78;75.34
55066;BME280;40964;42.114;24.220;2023-01-31T02:53:04;97280.25;;;2.59;76.07
55066;BME280;40964;42.114;24.220;2023-01-31T02:55:43;97298.09;;;2.62;76.09
55066;BME280;40964;42.114;24.220;2023-01-31T02:58:33;97301.81;;;2.59;76.65
55066;BME280;40964;42.114;24.220;2023-01-31T03:01:01;97303.00;;;2.56;76.92
55066;BME280;40964;42.114;24.220;2023-01-31T03:03:31;97285.69;;;2.49;76.36
55066;BME280;40964;42.114;24.220;2023-01-31T03:09:17;97300.75;;;2.68;75.96
55066;BME280;40964;42.114;24.220;2023-01-31T03:20:14;97312.53;;;2.41;76.59
55066;BME280;40964;42.114;24.220;2023-01-31T03:22:49;97295.25;;;2.34;77.83
55066;BME280;40964;42.114;24.220;2023-01-31T03:25:19;97327.78;;;2.44;78.77
55066;BME280;40964;42.114;24.220;2023-01-31T03:27:50;97323.22;;;2.46;78.20
55066;BME280;40964;42.114;24.220;2023-01-31T03:30:38;97322.31;;;2.54;78.01
55066;BME280;40964;42.114;24.220;2023-01-31T03:33:33;97328.75;;;2.58;77.40
55066;BME280;40964;42.114;24.220;2023-01-31T03:36:11;97343.44;;;2.51;77.00
55066;BME280;40964;42.114;24.220;2023-01-31T03:38:58;97331.44;;;2.50;77.16
55066;BME280;40964;42.114;24.220;2023-01-31T03:41:36;97335.38;;;2.46;76.88
55066;BME280;40964;42.114;24.220;2023-01-31T03:44:41;97343.78;;;2.48;76.62
55066;BME280;40964;42.114;24.220;2023-01-31T03:47:30;97329.63;;;2.36;77.02
55066;BME280;40964;42.114;24.220;2023-01-31T03:49:55;97329.38;;;2.45;77.18
55066;BME280;40964;42.114;24.220;2023-01-31T03:52:29;97333.94;;;2.43;76.95
55066;BME280;40964;42.114;24.220;2023-01-31T03:55:03;97345.28;;;2.42;76.97
55066;BME280;40964;42.114;24.220;2023-01-31T03:57:34;97340.94;;;2.43;77.73
55066;BME280;40964;42.114;24.220;2023-01-31T04:00:03;97323.97;;;2.32;79.07
55066;BME280;40964;42.114;24.220;2023-01-31T04:02:33;97320.31;;;2.26;78.03
55066;BME280;40964;42.114;24.220;2023-01-31T04:05:12;97343.66;;;2.26;77.60
55066;BME280;40964;42.114;24.220;2023-01-31T04:07:39;97353.75;;;2.21;77.89
55066;BME280;40964;42.114;24.220;2023-01-31T04:10:10;97349.84;;;2.25;77.44
55066;BME280;40964;42.114;24.220;2023-01-31T04:12:37;97356.16;;;2.23;77.79
55066;BME280;40964;42.114;24.220;2023-01-31T04:15:04;97366.88;;;2.20;76.83
55066;BME280;40964;42.114;24.220;2023-01-31T04:17:29;97367.13;;;2.10;77.77
55066;BME280;40964;42.114;24.220;2023-01-31T04:19:55;97374.50;;;2.21;76.97
55066;BME280;40964;42.114;24.220;2023-01-31T04:22:20;97373.31;;;2.24;75.62
55066;BME280;40964;42.114;24.220;2023-01-31T04:24:46;97382.91;;;2.23;75.38
55066;BME280;40964;42.114;24.220;2023-01-31T04:27:11;97379.44;;;2.31;74.76
55066;BME280;40964;42.114;24.220;2023-01-31T04:29:37;97404.13;;;2.27;72.77
55066;BME280;40964;42.114;24.220;2023-01-31T04:32:03;97397.03;;;2.21;71.88
55066;BME280;40964;42.114;24.220;2023-01-31T04:34:28;97403.66;;;2.23;72.05
55066;BME280;40964;42.114;24.220;2023-01-31T04:36:54;97419.44;;;2.14;72.02
55066;BME280;40964;42.114;24.220;2023-01-31T04:39:19;97436.22;;;2.03;71.48
55066;BME280;40964;42.114;24.220;2023-01-31T04:41:45;97439.63;;;2.04;71.39
55066;BME280;40964;42.114;24.220;2023-01-31T04:44:10;97437.19;;;2.02;72.58
55066;BME280;40964;42.114;24.220;2023-01-31T04:46:37;97455.75;;;1.91;72.46
55066;BME280;40964;42.114;24.220;2023-01-31T04:49:02;97460.00;;;1.84;73.90
55066;BME280;40964;42.114;24.220;2023-01-31T04:51:28;97461.78;;;1.83;73.90
55066;BME280;40964;42.114;24.220;2023-01-31T04:53:54;97464.56;;;1.74;74.78
55066;BME280;40964;42.114;24.220;2023-01-31T04:56:19;97444.03;;;1.64;68.87
55066;BME280;40964;42.114;24.220;2023-01-31T04:58:45;97443.81;;;1.82;63.82
55066;BME280;40964;42.114;24.220;2023-01-31T05:01:10;97438.69;;;1.96;62.29
55066;BME280;40964;42.114;24.220;2023-01-31T05:03:36;97441.72;;;2.08;64.03
55066;BME280;40964;42.114;24.220;2023-01-31T05:06:01;97442.38;;;2.02;66.75
55066;BME280;40964;42.114;24.220;2023-01-31T05:08:27;97437.41;;;1.92;67.77
55066;BME280;40964;42.114;24.220;2023-01-31T05:10:58;97436.91;;;1.97;62.85
55066;BME280;40964;42.114;24.220;2023-01-31T05:13:23;97440.44;;;2.04;63.29
55066;BME280;40964;42.114;24.220;2023-01-31T05:15:49;97442.69;;;2.07;60.55
55066;BME280;40964;42.114;24.220;2023-01-31T05:18:15;97438.72;;;2.19;60.24
55066;BME280;40964;42.114;24.220;2023-01-31T05:20:40;97448.88;;;2.29;61.56
55066;BME280;40964;42.114;24.220;2023-01-31T05:23:08;97446.56;;;2.34;61.32
55066;BME280;40964;42.114;24.220;2023-01-31T05:25:35;97439.13;;;2.31;61.54
55066;BME280;40964;42.114;24.220;2023-01-31T05:28:00;97448.25;;;2.27;62.16
55066;BME280;40964;42.114;24.220;2023-01-31T05:30:26;97440.63;;;2.25;62.00
55066;BME280;40964;42.114;24.220;2023-01-31T05:32:51;97442.44;;;2.25;62.54
55066;BME280;40964;42.114;24.220;2023-01-31T05:35:20;97443.50;;;2.31;62.60
55066;BME280;40964;42.114;24.220;2023-01-31T05:37:45;97437.69;;;2.28;62.93
55066;BME280;40964;42.114;24.220;2023-01-31T05:40:12;97446.09;;;2.31;63.70
55066;BME280;40964;42.114;24.220;2023-01-31T05:42:38;97447.09;;;2.30;62.68
55066;BME280;40964;42.114;24.220;2023-01-31T05:45:05;97435.31;;;2.42;61.85
55066;BME280;40964;42.114;24.220;2023-01-31T05:47:30;97443.91;;;2.42;62.22
55066;BME280;40964;42.114;24.220;2023-01-31T05:49:56;97397.09;;;2.13;60.44
55066;BME280;40964;42.114;24.220;2023-01-31T05:52:21;97459.53;;;2.57;60.68
55066;BME280;40964;42.114;24.220;2023-01-31T05:54:49;97471.03;;;2.63;60.37
55066;BME280;40964;42.114;24.220;2023-01-31T05:57:15;97473.72;;;2.69;61.64
55066;BME280;40964;42.114;24.220;2023-01-31T05:59:41;97484.44;;;2.66;61.78
55066;BME280;40964;42.114;24.220;2023-01-31T06:02:06;97485.44;;;2.65;61.86
55066;BME280;40964;42.114;24.220;2023-01-31T06:04:33;97487.34;;;2.71;61.80
55066;BME280;40964;42.114;24.220;2023-01-31T06:06:59;97487.78;;;2.75;62.83
55066;BME280;40964;42.114;24.220;2023-01-31T06:09:25;97496.69;;;2.80;61.49
55066;BME280;40964;42.114;24.220;2023-01-31T06:11:50;97480.19;;;2.73;62.07
55066;BME280;40964;42.114;24.220;2023-01-31T06:14:16;97488.91;;;2.80;60.24
55066;BME280;40964;42.114;24.220;2023-01-31T06:16:41;97496.81;;;3.02;59.45
55066;BME280;40964;42.114;24.220;2023-01-31T06:19:07;97501.94;;;3.10;60.68
55066;BME280;40964;42.114;24.220;2023-01-31T06:21:32;97498.19;;;3.12;59.57
55066;BME280;40964;42.114;24.220;2023-01-31T06:23:58;97497.19;;;3.13;59.46
55066;BME280;40964;42.114;24.220;2023-01-31T06:26:23;97490.88;;;3.16;60.92
55066;BME280;40964;42.114;24.220;2023-01-31T06:28:49;97499.84;;;3.28;61.27
55066;BME280;40964;42.114;24.220;2023-01-31T06:31:14;97506.63;;;3.29;61.05
55066;BME280;40964;42.114;24.220;2023-01-31T06:33:40;97487.19;;;3.25;60.10
55066;BME280;40964;42.114;24.220;2023-01-31T06:36:06;97493.75;;;3.36;60.86
55066;BME280;40964;42.114;24.220;2023-01-31T06:38:32;97503.59;;;3.40;59.76
55066;BME280;40964;42.114;24.220;2023-01-31T06:40:57;97503.69;;;3.47;60.13
55066;BME280;40964;42.114;24.220;2023-01-31T06:43:23;97490.53;;;3.34;60.30
55066;BME280;40964;42.114;24.220;2023-01-31T06:45:49;97500.47;;;3.45;59.89
55066;BME280;40964;42.114;24.220;2023-01-31T06:48:15;97509.63;;;3.56;58.32
55066;BME280;40964;42.114;24.220;2023-01-31T06:50:41;97507.22;;;3.54;58.54
55066;BME280;40964;42.114;24.220;2023-01-31T06:53:06;97508.28;;;3.60;56.81
55066;BME280;40964;42.114;24.220;2023-01-31T06:55:32;97518.50;;;3.61;54.21
55066;BME280;40964;42.114;24.220;2023-01-31T06:57:58;97511.78;;;3.67;56.21
55066;BME280;40964;42.114;24.220;2023-01-31T07:00:23;97514.28;;;3.75;54.93
55066;BME280;40964;42.114;24.220;2023-01-31T07:02:50;97530.78;;;3.82;53.24
55066;BME280;40964;42.114;24.220;2023-01-31T07:05:17;97520.66;;;3.87;51.07
55066;BME280;40964;42.114;24.220;2023-01-31T07:07:43;97541.25;;;4.04;50.67
55066;BME280;40964;42.114;24.220;2023-01-31T07:10:09;97530.31;;;4.08;49.67
55066;BME280;40964;42.114;24.220;2023-01-31T07:12:35;97534.00;;;4.14;50.58
55066;BME280;40964;42.114;24.220;2023-01-31T07:15:01;97537.22;;;4.16;50.47
55066;BME280;40964;42.114;24.220;2023-01-31T07:17:26;97538.38;;;4.28;49.58
55066;BME280;40964;42.114;24.220;2023-01-31T07:19:52;97516.03;;;4.19;51.09
55066;BME280;40964;42.114;24.220;2023-01-31T07:22:17;97538.19;;;4.30;48.98
55066;BME280;40964;42.114;24.220;2023-01-31T07:24:44;97519.53;;;4.26;49.29
55066;BME280;40964;42.114;24.220;2023-01-31T07:27:13;97527.22;;;4.34;49.84
55066;BME280;40964;42.114;24.220;2023-01-31T07:29:38;97538.44;;;4.35;49.76
55066;BME280;40964;42.114;24.220;2023-01-31T07:32:04;97537.53;;;4.42;48.56
55066;BME280;40964;42.114;24.220;2023-01-31T07:34:29;97545.34;;;4.42;50.33
55066;BME280;40964;42.114;24.220;2023-01-31T07:36:55;97541.94;;;4.42;47.62
55066;BME280;40964;42.114;24.220;2023-01-31T07:39:21;97523.41;;;4.51;48.14
55066;BME280;40964;42.114;24.220;2023-01-31T07:41:48;97533.81;;;4.51;47.76
55066;BME280;40964;42.114;24.220;2023-01-31T07:44:13;97531.84;;;4.53;48.27
55066;BME280;40964;42.114;24.220;2023-01-31T07:46:39;97534.72;;;4.59;48.50
55066;BME280;40964;42.114;24.220;2023-01-31T07:49:04;97519.50;;;4.62;48.83
55066;BME280;40964;42.114;24.220;2023-01-31T07:51:30;97521.94;;;4.64;48.11
55066;BME280;40964;42.114;24.220;2023-01-31T07:53:55;97497.72;;;4.48;49.15
55066;BME280;40964;42.114;24.220;2023-01-31T07:56:28;97530.03;;;4.75;47.94
55066;BME280;40964;42.114;24.220;2023-01-31T07:58:53;97528.88;;;4.78;47.83
55066;BME280;40964;42.114;24.220;2023-01-31T08:01:21;97527.59;;;4.89;47.10
55066;BME280;40964;42.114;24.220;2023-01-31T08:04:07;97521.91;;;4.85;47.49
55066;BME280;40964;42.114;24.220;2023-01-31T08:06:33;97527.00;;;4.93;47.42
55066;BME280;40964;42.114;24.220;2023-01-31T08:08:59;97524.41;;;4.93;47.74
55066;BME280;40964;42.114;24.220;2023-01-31T08:11:25;97532.53;;;5.05;47.83
55066;BME280;40964;42.114;24.220;2023-01-31T08:13:51;97524.13;;;5.09;46.33
55066;BME280;40964;42.114;24.220;2023-01-31T08:16:16;97521.19;;;5.12;46.30
55066;BME280;40964;42.114;24.220;2023-01-31T08:18:42;97526.41;;;5.12;45.93
55066;BME280;40964;42.114;24.220;2023-01-31T08:21:09;97531.63;;;5.19;46.06
55066;BME280;40964;42.114;24.220;2023-01-31T08:23:35;97537.72;;;5.26;45.95
55066;BME280;40964;42.114;24.220;2023-01-31T08:26:06;97530.16;;;5.38;46.62
55066;BME280;40964;42.114;24.220;2023-01-31T08:28:35;97524.97;;;5.38;46.93
55066;BME280;40964;42.114;24.220;2023-01-31T08:31:00;97526.41;;;5.40;45.26
55066;BME280;40964;42.114;24.220;2023-01-31T08:33:26;97537.72;;;5.54;45.62
55066;BME280;40964;42.114;24.220;2023-01-31T08:35:51;97541.94;;;5.55;44.47
55066;BME280;40964;42.114;24.220;2023-01-31T08:38:17;97520.19;;;5.41;45.64
55066;BME280;40964;42.114;24.220;2023-01-31T08:40:43;97539.66;;;5.46;44.63
55066;BME280;40964;42.114;24.220;2023-01-31T08:43:08;97535.25;;;5.46;45.71
55066;BME280;40964;42.114;24.220;2023-01-31T08:45:34;97532.22;;;5.43;44.70
55066;BME280;40964;42.114;24.220;2023-01-31T08:48:11;97547.88;;;5.43;44.54
55066;BME280;40964;42.114;24.220;2023-01-31T08:50:37;97554.03;;;5.35;44.74
55066;BME280;40964;42.114;24.220;2023-01-31T08:53:03;97530.09;;;5.25;45.47
55066;BME280;40964;42.114;24.220;2023-01-31T08:55:30;97537.59;;;5.34;46.33
55066;BME280;40964;42.114;24.220;2023-01-31T08:57:56;97528.81;;;5.42;46.78
55066;BME280;40964;42.114;24.220;2023-01-31T09:00:21;97533.09;;;5.50;45.58
55066;BME280;40964;42.114;24.220;2023-01-31T09:02:57;97533.34;;;5.61;46.70
55066;BME280;40964;42.114;24.220;2023-01-31T09:05:24;97540.78;;;5.58;45.51
55066;BME280;40964;42.114;24.220;2023-01-31T09:07:51;97534.75;;;5.64;45.36
55066;BME280;40964;42.114;24.220;2023-01-31T09:10:20;97531.78;;;5.67;46.65
55066;BME280;40964;42.114;24.220;2023-01-31T09:12:46;97544.69;;;5.75;47.75
55066;BME280;40964;42.114;24.220;2023-01-31T09:15:12;97556.72;;;6.04;47.11
55066;BME280;40964;42.114;24.220;2023-01-31T09:17:39;97539.84;;;6.07;47.90
55066;BME280;40964;42.114;24.220;2023-01-31T09:20:05;97557.97;;;6.15;47.76
55066;BME280;40964;42.114;24.220;2023-01-31T09:22:35;97540.66;;;6.07;47.15
55066;BME280;40964;42.114;24.220;2023-01-31T09:25:01;97549.31;;;6.08;48.59
55066;BME280;40964;42.114;24.220;2023-01-31T09:27:30;97497.38;;;5.85;46.46
55066;BME280;40964;42.114;24.220;2023-01-31T09:29:55;97530.22;;;6.07;47.39
55066;BME280;40964;42.114;24.220;2023-01-31T09:32:21;97535.88;;;6.17;50.71
55066;BME280;40964;42.114;24.220;2023-01-31T09:34:47;97540.91;;;6.12;49.37
55066;BME280;40964;42.114;24.220;2023-01-31T09:37:15;97522.97;;;6.03;48.98
55066;BME280;40964;42.114;24.220;2023-01-31T09:39:41;97519.19;;;6.05;49.35
55066;BME280;40964;42.114;24.220;2023-01-31T09:45:02;97509.47;;;5.92;48.72
55066;BME280;40964;42.114;24.220;2023-01-31T09:47:33;97505.25;;;5.91;49.73
55066;BME280;40964;42.114;24.220;2023-01-31T09:52:29;97493.03;;;5.64;50.94
55066;BME280;40964;42.114;24.220;2023-01-31T09:54:56;97491.72;;;5.47;50.64
55066;BME280;40964;42.114;24.220;2023-01-31T10:05:39;97473.25;;;6.24;49.97
55066;BME280;40964;42.114;24.220;2023-01-31T10:11:06;97469.63;;;6.25;48.77
55066;BME280;40964;42.114;24.220;2023-01-31T10:16:30;97460.31;;;5.96;48.67
55066;BME280;40964;42.114;24.220;2023-01-31T10:19:02;97466.16;;;6.05;49.55
55066;BME280;40964;42.114;24.220;2023-01-31T10:21:37;97461.19;;;6.23;48.49
55066;BME280;40964;42.114;24.220;2023-01-31T10:24:19;97455.78;;;6.24;47.93
55066;BME280;40964;42.114;24.220;2023-01-31T10:26:50;97468.47;;;6.41;48.60
55066;BME280;40964;42.114;24.220;2023-01-31T10:29:27;97468.28;;;6.42;48.75
55066;BME280;40964;42.114;24.220;2023-01-31T10:32:03;97463.06;;;6.42;47.54
55066;BME280;40964;42.114;24.220;2023-01-31T10:34:39;97453.44;;;6.63;47.87
55066;BME280;40964;42.114;24.220;2023-01-31T10:37:15;97458.47;;;6.71;46.67
55066;BME280;40964;42.114;24.220;2023-01-31T10:39:51;97449.19;;;6.55;48.09
55066;BME280;40964;42.114;24.220;2023-01-31T10:45:16;97445.16;;;6.39;49.27
55066;BME280;40964;42.114;24.220;2023-01-31T10:47:52;97441.13;;;6.37;48.97
55066;BME280;40964;42.114;24.220;2023-01-31T10:50:24;97451.34;;;6.12;48.57
55066;BME280;40964;42.114;24.220;2023-01-31T10:58:34;97423.69;;;6.57;49.22
55066;BME280;40964;42.114;24.220;2023-01-31T11:01:03;97417.47;;;6.71;48.40
55066;BME280;40964;42.114;24.220;2023-01-31T11:03:31;97432.16;;;6.66;48.35
55066;BME280;40964;42.114;24.220;2023-01-31T11:05:57;97408.41;;;6.54;47.90
55066;BME280;40964;42.114;24.220;2023-01-31T11:08:42;97427.31;;;6.56;47.56
55066;BME280;40964;42.114;24.220;2023-01-31T11:11:12;97424.91;;;6.48;48.50
55066;BME280;40964;42.114;24.220;2023-01-31T11:13:38;97433.53;;;6.68;50.74
55066;BME280;40964;42.114;24.220;2023-01-31T11:16:10;97420.66;;;6.73;49.54
55066;BME280;40964;42.114;24.220;2023-01-31T11:18:46;97434.94;;;6.64;48.43
55066;BME280;40964;42.114;24.220;2023-01-31T11:21:39;97426.28;;;6.50;47.34
55066;BME280;40964;42.114;24.220;2023-01-31T11:24:14;97426.84;;;6.26;48.15
55066;BME280;40964;42.114;24.220;2023-01-31T11:26:47;97406.69;;;6.00;48.08
55066;BME280;40964;42.114;24.220;2023-01-31T11:29:18;97444.47;;;6.04;48.91
55066;BME280;40964;42.114;24.220;2023-01-31T11:31:46;97432.81;;;6.07;49.07
55066;BME280;40964;42.114;24.220;2023-01-31T11:36:43;97428.81;;;6.04;49.06
55066;BME280;40964;42.114;24.220;2023-01-31T11:39:32;97429.19;;;6.01;48.85
55066;BME280;40964;42.114;24.220;2023-01-31T11:42:12;97434.81;;;5.98;48.32
55066;BME280;40964;42.114;24.220;2023-01-31T11:47:47;97440.94;;;5.84;49.25
55066;BME280;40964;42.114;24.220;2023-01-31T11:50:36;97447.31;;;5.75;50.46
55066;BME280;40964;42.114;24.220;2023-01-31T11:53:23;97435.44;;;5.65;51.56
55066;BME280;40964;42.114;24.220;2023-01-31T11:55:51;97447.31;;;5.68;49.71
55066;BME280;40964;42.114;24.220;2023-01-31T11:58:24;97453.53;;;5.67;50.20
55066;BME280;40964;42.114;24.220;2023-01-31T12:00:58;97443.91;;;5.74;51.06
55066;BME280;40964;42.114;24.220;2023-01-31T12:03:25;97447.97;;;5.77;50.13
55066;BME280;40964;42.114;24.220;2023-01-31T12:06:04;97447.13;;;5.69;50.41
55066;BME280;40964;42.114;24.220;2023-01-31T12:08:36;97458.13;;;5.65;51.75
55066;BME280;40964;42.114;24.220;2023-01-31T12:11:05;97454.53;;;5.73;51.82
55066;BME280;40964;42.114;24.220;2023-01-31T12:13:30;97461.81;;;5.77;51.45
55066;BME280;40964;42.114;24.220;2023-01-31T12:15:58;97456.59;;;5.77;51.12
55066;BME280;40964;42.114;24.220;2023-01-31T12:19:00;97462.25;;;5.87;50.56
55066;BME280;40964;42.114;24.220;2023-01-31T12:21:33;97463.66;;;5.90;51.12
55066;BME280;40964;42.114;24.220;2023-01-31T12:26:49;97444.75;;;5.81;50.06
55066;BME280;40964;42.114;24.220;2023-01-31T12:45:27;97486.59;;;5.60;52.02
55066;BME280;40964;42.114;24.220;2023-01-31T12:54:10;97482.94;;;5.54;52.14
55066;BME280;40964;42.114;24.220;2023-01-31T12:56:46;97493.56;;;5.53;51.61
55066;BME280;40964;42.114;24.220;2023-01-31T13:04:38;97485.03;;;5.37;51.83
55066;BME280;40964;42.114;24.220;2023-01-31T13:07:13;97489.66;;;5.35;52.61
55066;BME280;40964;42.114;24.220;2023-01-31T13:09:45;97492.31;;;5.42;53.07
55066;BME280;40964;42.114;24.220;2023-01-31T13:12:22;97494.09;;;5.41;52.94
55066;BME280;40964;42.114;24.220;2023-01-31T13:15:01;97496.13;;;5.46;53.72
55066;BME280;40964;42.114;24.220;2023-01-31T13:17:36;97498.78;;;5.53;52.39
55066;BME280;40964;42.114;24.220;2023-01-31T13:23:01;97492.41;;;5.62;53.37
55066;BME280;40964;42.114;24.220;2023-01-31T13:27:59;97501.97;;;5.48;52.88
55066;BME280;40964;42.114;24.220;2023-01-31T13:30:32;97498.78;;;5.53;55.00
55066;BME280;40964;42.114;24.220;2023-01-31T13:33:00;97506.75;;;5.45;56.19
55066;BME280;40964;42.114;24.220;2023-01-31T13:35:32;97510.91;;;5.39;56.43
55066;BME280;40964;42.114;24.220;2023-01-31T13:38:02;97506.50;;;5.33;56.60
55066;BME280;40964;42.114;24.220;2023-01-31T13:40:34;97514.66;;;5.30;56.10
55066;BME280;40964;42.114;24.220;2023-01-31T13:43:11;97516.31;;;5.31;58.40
55066;BME280;40964;42.114;24.220;2023-01-31T13:45:42;97513.38;;;5.12;58.75
55066;BME280;40964;42.114;24.220;2023-01-31T13:50:51;97519.50;;;4.83;60.31
55066;BME280;40964;42.114;24.220;2023-01-31T13:53:26;97519.13;;;4.65;61.71
55066;BME280;40964;42.114;24.220;2023-01-31T13:55:53;97529.53;;;4.44;63.92
55066;BME280;40964;42.114;24.220;2023-01-31T13:58:23;97524.81;;;4.33;65.85
55066;BME280;40964;42.114;24.220;2023-01-31T14:01:07;97527.16;;;4.13;66.90
55066;BME280;40964;42.114;24.220;2023-01-31T14:09:33;97528.28;;;3.89;68.29
55066;BME280;40964;42.114;24.220;2023-01-31T14:14:48;97532.94;;;3.93;67.72
55066;BME280;40964;42.114;24.220;2023-01-31T14:29:44;97526.59;;;3.96;64.39
55066;BME280;40964;42.114;24.220;2023-01-31T14:32:16;97539.59;;;3.96;65.73
55066;BME280;40964;42.114;24.220;2023-01-31T14:34:48;97536.19;;;3.95;65.04
55066;BME280;40964;42.114;24.220;2023-01-31T14:37:33;97535.91;;;3.90;64.51
55066;BME280;40964;42.114;24.220;2023-01-31T14:40:22;97542.53;;;3.93;64.33
55066;BME280;40964;42.114;24.220;2023-01-31T14:48:47;97556.09;;;3.88;66.22
55066;BME280;40964;42.114;24.220;2023-01-31T14:58:06;97574.81;;;3.84;65.91
55066;BME280;40964;42.114;24.220;2023-01-31T15:00:05;97573.66;;;3.86;65.98
55066;BME280;40964;42.114;24.220;2023-01-31T15:02:53;97590.16;;;3.93;66.19
55066;BME280;40964;42.114;24.220;2023-01-31T15:05:45;97584.16;;;3.93;65.92
55066;BME280;40964;42.114;24.220;2023-01-31T15:18:42;97598.50;;;3.74;67.62
55066;BME280;40964;42.114;24.220;2023-01-31T15:21:10;97594.00;;;3.68;66.02
55066;BME280;40964;42.114;24.220;2023-01-31T15:23:38;97588.63;;;3.69;66.48
55066;BME280;40964;42.114;24.220;2023-01-31T15:26:05;97606.13;;;3.76;66.92
55066;BME280;40964;42.114;24.220;2023-01-31T15:28:36;97602.53;;;3.77;65.82
55066;BME280;40964;42.114;24.220;2023-01-31T15:31:13;97601.19;;;3.81;66.52
55066;BME280;40964;42.114;24.220;2023-01-31T15:33:43;97610.81;;;3.80;65.80
55066;BME280;40964;42.114;24.220;2023-01-31T15:36:36;97611.78;;;3.79;66.51
55066;BME280;40964;42.114;24.220;2023-01-31T15:39:25;97631.59;;;3.80;66.69
55066;BME280;40964;42.114;24.220;2023-01-31T15:41:53;97624.88;;;3.71;67.57
55066;BME280;40964;42.114;24.220;2023-01-31T15:46:46;97641.00;;;3.66;68.31
55066;BME280;40964;42.114;24.220;2023-01-31T15:49:31;97646.09;;;3.60;68.48
55066;BME280;40964;42.114;24.220;2023-01-31T15:52:02;97651.19;;;3.53;68.67
55066;BME280;40964;42.114;24.220;2023-01-31T15:54:28;97661.13;;;3.50;70.31